Time;durP1;ratioP1;P1;durP2;ratioP2;P2;SDS_P1;SDS_P2;PMS_P1;PMS_P2;Temp;Humidity;BMP_temperature;BMP_pressure;BME280_temperature;BME280_humidity;BME280_pressure;Samples;Min_cycle;Max_cycle;Signal;HPM_P1;HPM_P2
2023/12/06 00:01:50;;;;;;;20.23;11.03;;;0.90;99.90;;;;;;4944236;28;20956;-66
2023/12/06 00:04:17;;;;;;;22.07;11.47;;;;;;;;;;4911490;28;20218;-66
2023/12/06 00:06:44;;;;;;;22.03;12.67;;;0.90;99.90;;;;;;4941894;28;20215;-66
2023/12/06 00:09:11;;;;;;;21.83;12.80;;;0.90;99.90;;;;;;4945782;28;20203;-66
2023/12/06 00:11:39;;;;;;;22.50;11.33;;;0.90;99.90;;;;;;4926612;28;20247;-66
2023/12/06 00:14:06;;;;;;;25.20;11.90;;;0.80;99.90;;;;;;4936391;28;21001;-66
2023/12/06 00:16:33;;;;;;;19.43;11.07;;;1.20;99.90;;;;;;4937613;28;20209;-66
2023/12/06 00:19:00;;;;;;;24.13;11.87;;;0.80;99.90;;;;;;4909546;28;20395;-66
2023/12/06 00:21:27;;;;;;;19.73;9.70;;;0.90;99.90;;;;;;4940995;28;20208;-66
2023/12/06 00:23:54;;;;;;;20.23;11.20;;;0.90;99.90;;;;;;4944189;28;20323;-66
2023/12/06 00:26:21;;;;;;;21.30;11.40;;;1.50;99.90;;;;;;4946965;28;20724;-66
2023/12/06 00:28:50;;;;;;;28.13;11.93;;;0.80;99.90;;;;;;4932238;28;20233;-66
2023/12/06 00:31:16;;;;;;;17.87;10.43;;;0.90;99.90;;;;;;4937047;28;20212;-66
2023/12/06 00:33:44;;;;;;;19.27;10.33;;;;;;;;;;4908065;28;20234;-66
2023/12/06 00:36:11;;;;;;;16.77;10.13;;;2.00;99.90;;;;;;4936411;28;20259;-66
2023/12/06 00:38:38;;;;;;;19.07;10.77;;;0.80;99.90;;;;;;4943754;28;20226;-66
2023/12/06 00:41:05;;;;;;;23.90;12.10;;;1.60;99.90;;;;;;4943736;28;20303;-66
2023/12/06 00:43:32;;;;;;;20.03;11.33;;;0.90;99.90;;;;;;4937267;28;20276;-66
2023/12/06 00:46:00;;;;;;;19.43;10.10;;;0.30;99.90;;;;;;4941599;28;20295;-66
2023/12/06 00:48:27;;;;;;;24.47;10.93;;;0.90;99.90;;;;;;4937499;28;20234;-66
2023/12/06 00:50:54;;;;;;;27.33;11.80;;;0.90;99.90;;;;;;4900140;28;20751;-66
2023/12/06 00:53:21;;;;;;;18.20;11.13;;;0.90;99.90;;;;;;4940427;28;20231;-66
2023/12/06 00:55:48;;;;;;;22.53;11.00;;;0.90;99.90;;;;;;4938483;28;20719;-66
2023/12/06 00:58:15;;;;;;;21.40;11.60;;;0.90;99.90;;;;;;4934416;28;20578;-66
2023/12/06 01:00:42;;;;;;;20.13;11.67;;;0.90;99.90;;;;;;4927292;28;20225;-66
2023/12/06 01:03:10;;;;;;;20.83;10.93;;;0.90;99.90;;;;;;4927438;28;20238;-66
2023/12/06 01:05:37;;;;;;;21.53;11.97;;;2.40;99.90;;;;;;4900699;28;20220;-67
2023/12/06 01:08:04;;;;;;;21.80;11.50;;;1.30;99.90;;;;;;4929036;28;20226;-67
2023/12/06 01:10:31;;;;;;;22.67;11.90;;;0.90;99.90;;;;;;4940351;28;20212;-66
2023/12/06 01:12:58;;;;;;;24.97;11.27;;;1.00;99.90;;;;;;4931628;28;20353;-66
2023/12/06 01:15:25;;;;;;;24.13;12.00;;;1.80;99.90;;;;;;4936995;28;20208;-67
2023/12/06 01:17:52;;;;;;;26.13;12.60;;;0.80;99.90;;;;;;4931016;28;20230;-67
2023/12/06 01:20:21;;;;;;;22.80;12.53;;;1.00;99.90;;;;;;4910191;28;20211;-67
2023/12/06 01:22:48;;;;;;;27.23;12.13;;;0.90;99.90;;;;;;4935215;28;20204;-66
2023/12/06 01:25:15;;;;;;;23.40;11.63;;;1.00;99.90;;;;;;4943144;28;20219;-66
2023/12/06 01:27:42;;;;;;;24.43;11.97;;;;;;;;;;4931223;28;20233;-66
2023/12/06 01:30:09;;;;;;;23.77;11.63;;;0.90;99.90;;;;;;4932518;28;20216;-67
2023/12/06 01:32:36;;;;;;;21.63;12.23;;;1.00;99.90;;;;;;4939882;28;20230;-67
2023/12/06 01:35:03;;;;;;;22.07;11.83;;;1.00;99.90;;;;;;4894975;28;21499;-67
2023/12/06 01:37:31;;;;;;;22.20;11.80;;;1.70;99.90;;;;;;4935029;28;20249;-67
2023/12/06 01:39:58;;;;;;;23.77;12.53;;;0.90;99.90;;;;;;4940531;28;20306;-67
2023/12/06 01:42:25;;;;;;;26.97;12.37;;;0.90;99.90;;;;;;4937232;28;20207;-67
2023/12/06 01:44:52;;;;;;;23.47;12.60;;;;;;;;;;4929551;28;20207;-67
2023/12/06 01:47:21;;;;;;;23.73;12.80;;;0.80;99.90;;;;;;4934363;28;20211;-66
2023/12/06 01:49:51;;;;;;;27.20;13.97;;;0.90;99.90;;;;;;4930079;28;20322;-67
2023/12/06 01:52:18;;;;;;;25.03;12.77;;;0.80;99.90;;;;;;4907806;28;21162;-67
2023/12/06 01:54:47;;;;;;;25.10;13.07;;;0.90;99.90;;;;;;4941833;28;20326;-67
2023/12/06 01:57:14;;;;;;;28.90;13.10;;;1.00;99.90;;;;;;4942031;28;20203;-67
2023/12/06 01:59:42;;;;;;;27.30;12.67;;;1.00;99.90;;;;;;4932427;28;20210;-66
2023/12/06 02:02:09;;;;;;;25.97;12.77;;;1.30;99.90;;;;;;4937338;28;20784;-67
2023/12/06 02:04:36;;;;;;;26.37;12.53;;;1.20;99.90;;;;;;4938393;28;20206;-67
2023/12/06 02:07:03;;;;;;;28.50;12.77;;;1.00;99.90;;;;;;4911284;28;20233;-67
2023/12/06 02:09:30;;;;;;;23.57;11.97;;;0.90;99.90;;;;;;4941113;28;20697;-67
2023/12/06 02:11:58;;;;;;;23.97;13.57;;;1.00;99.90;;;;;;4948131;28;20644;-66
2023/12/06 02:14:25;;;;;;;26.87;13.30;;;;;;;;;;4939271;28;20238;-67
2023/12/06 02:16:52;;;;;;;31.33;13.93;;;0.80;99.90;;;;;;4940709;28;20218;-66
2023/12/06 02:19:26;;;;;;;29.30;13.73;;;0.90;99.90;;;;;;4946290;28;20204;-67
2023/12/06 02:21:54;;;;;;;29.87;14.03;;;0.80;99.90;;;;;;4904858;28;20224;-67
2023/12/06 02:24:23;;;;;;;24.83;12.57;;;0.90;99.90;;;;;;4941847;28;20674;-67
2023/12/06 02:26:54;;;;;;;28.00;13.63;;;0.80;99.90;;;;;;4944218;28;20960;-67
2023/12/06 02:29:21;;;;;;;25.23;13.43;;;0.80;99.90;;;;;;4941954;28;20210;-67
2023/12/06 02:31:48;;;;;;;26.60;13.47;;;0.90;99.90;;;;;;4931120;28;20221;-67
2023/12/06 02:34:20;;;;;;;24.23;12.97;;;0.80;99.90;;;;;;4950157;28;21075;-67
2023/12/06 02:36:51;;;;;;;24.13;13.00;;;-0.30;99.90;;;;;;4939562;28;20227;-67
2023/12/06 02:39:18;;;;;;;29.43;13.60;;;1.00;99.90;;;;;;4905916;28;20215;-67
2023/12/06 02:41:45;;;;;;;28.80;14.27;;;0.90;99.90;;;;;;4942829;28;20419;-66
2023/12/06 02:44:13;;;;;;;26.43;12.90;;;0.90;99.90;;;;;;4947463;28;20212;-67
2023/12/06 02:46:41;;;;;;;22.47;12.40;;;1.00;99.90;;;;;;4931009;28;20306;-67
2023/12/06 02:49:08;;;;;;;25.23;12.83;;;0.90;99.90;;;;;;4945461;28;20328;-67
2023/12/06 02:51:35;;;;;;;31.13;13.10;;;1.00;99.90;;;;;;4935420;28;20233;-67
2023/12/06 02:54:01;;;;;;;23.93;13.27;;;0.90;99.90;;;;;;4915895;28;20239;-67
2023/12/06 02:56:28;;;;;;;29.23;13.53;;;0.90;99.90;;;;;;4940434;28;20681;-67
2023/12/06 02:58:55;;;;;;;23.77;12.37;;;1.70;99.90;;;;;;4946181;28;20209;-67
2023/12/06 03:01:23;;;;;;;24.37;12.60;;;0.90;99.90;;;;;;4936526;28;20222;-67
2023/12/06 03:03:50;;;;;;;25.57;12.73;;;0.90;99.90;;;;;;4937985;28;21416;-67
2023/12/06 03:06:17;;;;;;;22.70;12.73;;;;;;;;;;4948319;28;20250;-67
2023/12/06 03:08:44;;;;;;;26.43;14.00;;;0.90;99.90;;;;;;4902863;28;22535;-67
2023/12/06 03:11:11;;;;;;;28.87;14.00;;;0.90;99.90;;;;;;4941192;28;20213;-67
2023/12/06 03:13:38;;;;;;;31.57;12.90;;;0.90;99.90;;;;;;4948095;28;20223;-67
2023/12/06 03:16:05;;;;;;;31.37;14.77;;;1.00;99.90;;;;;;4946907;28;20210;-67
2023/12/06 03:18:34;;;;;;;28.53;14.17;;;0.90;99.90;;;;;;4924622;28;21036;-67
2023/12/06 03:21:02;;;;;;;26.87;13.03;;;;;;;;;;4937509;28;20222;-67
2023/12/06 03:23:29;;;;;;;33.70;13.83;;;;;;;;;;4939789;28;20217;-67
2023/12/06 03:25:56;;;;;;;27.33;13.17;;;0.90;99.90;;;;;;4916636;28;20210;-67
2023/12/06 03:28:22;;;;;;;25.27;12.67;;;0.90;99.90;;;;;;4946501;28;20267;-67
2023/12/06 03:30:49;;;;;;;24.73;13.57;;;0.90;99.90;;;;;;4946568;28;20289;-67
2023/12/06 03:33:16;;;;;;;28.03;12.83;;;1.30;99.90;;;;;;4935899;28;20236;-67
2023/12/06 03:35:44;;;;;;;32.00;13.83;;;1.00;99.90;;;;;;4944916;28;20196;-67
2023/12/06 03:38:11;;;;;;;26.67;13.53;;;0.90;99.90;;;;;;4936101;28;20214;-67
2023/12/06 03:40:39;;;;;;;27.40;13.60;;;1.40;99.90;;;;;;4908640;28;20360;-67
2023/12/06 03:43:06;;;;;;;29.57;14.47;;;0.80;99.90;;;;;;4946033;28;20207;-67
2023/12/06 03:45:33;;;;;;;28.77;12.63;;;0.90;99.90;;;;;;4939282;28;20216;-67
2023/12/06 03:47:59;;;;;;;28.93;14.00;;;1.20;99.90;;;;;;4932080;28;20210;-67
2023/12/06 03:50:26;;;;;;;25.70;13.83;;;0.90;99.90;;;;;;4940964;28;20834;-67
2023/12/06 03:52:55;;;;;;;28.17;14.00;;;0.90;99.90;;;;;;4933970;28;20205;-67
2023/12/06 03:55:22;;;;;;;27.43;13.50;;;0.80;99.90;;;;;;4924850;28;20744;-67
2023/12/06 03:57:49;;;;;;;22.63;11.77;;;;;;;;;;4925773;28;20211;-67
2023/12/06 04:00:16;;;;;;;28.97;13.40;;;0.80;99.90;;;;;;4941369;28;20288;-67
2023/12/06 04:02:43;;;;;;;30.63;13.03;;;0.20;99.90;;;;;;4936347;28;20203;-67
2023/12/06 04:05:10;;;;;;;29.10;13.30;;;0.90;99.90;;;;;;4938511;28;20260;-67
2023/12/06 04:07:38;;;;;;;32.37;12.83;;;0.90;99.90;;;;;;4942077;28;20198;-67
2023/12/06 04:10:07;;;;;;;24.37;12.20;;;0.30;99.90;;;;;;4939121;28;20581;-67
2023/12/06 04:12:34;;;;;;;26.83;13.47;;;0.80;99.90;;;;;;4912107;28;20217;-67
2023/12/06 04:15:01;;;;;;;24.80;12.87;;;0.80;99.90;;;;;;4945419;28;20604;-67
2023/12/06 04:17:28;;;;;;;20.87;11.17;;;1.40;99.90;;;;;;4938606;28;20236;-67
2023/12/06 04:19:55;;;;;;;25.47;11.90;;;0.80;99.90;;;;;;4934558;28;20219;-67
2023/12/06 04:22:22;;;;;;;22.57;11.30;;;0.70;99.90;;;;;;4945044;28;20210;-67
2023/12/06 04:24:49;;;;;;;24.40;11.83;;;0.70;99.90;;;;;;4944218;28;21026;-67
2023/12/06 04:27:17;;;;;;;29.80;12.93;;;1.00;99.90;;;;;;4910856;28;21425;-67
2023/12/06 04:29:44;;;;;;;19.93;11.47;;;0.80;99.90;;;;;;4952686;28;20207;-67
2023/12/06 04:32:11;;;;;;;27.57;13.47;;;0.70;99.90;;;;;;4942463;28;20215;-67
2023/12/06 04:34:48;;;;;;;26.10;12.80;;;0.70;99.90;;;;;;4935928;28;20257;-67
2023/12/06 04:37:15;;;;;;;26.60;12.97;;;0.90;99.90;;;;;;4940572;28;20711;-67
2023/12/06 04:39:42;;;;;;;25.57;13.80;;;0.80;99.90;;;;;;4930360;28;20201;-67
2023/12/06 04:42:09;;;;;;;22.50;11.73;;;0.80;99.90;;;;;;4908762;28;20209;-68
2023/12/06 04:44:38;;;;;;;26.77;12.93;;;0.90;99.90;;;;;;4937467;28;20406;-67
2023/12/06 04:47:05;;;;;;;24.77;13.20;;;0.80;99.90;;;;;;4934093;28;20240;-67
2023/12/06 04:49:32;;;;;;;23.13;11.83;;;0.80;99.90;;;;;;4928762;28;20216;-67
2023/12/06 04:52:00;;;;;;;24.07;12.07;;;0.80;99.90;;;;;;4944084;28;20201;-67
2023/12/06 04:54:27;;;;;;;21.63;11.63;;;0.80;99.90;;;;;;4927198;28;20226;-67
2023/12/06 04:56:54;;;;;;;27.10;12.37;;;0.80;99.90;;;;;;4946496;28;20419;-67
2023/12/06 04:59:21;;;;;;;19.97;11.23;;;1.00;99.90;;;;;;4912743;28;20210;-67
2023/12/06 05:01:49;;;;;;;23.00;11.57;;;0.80;99.90;;;;;;4935211;28;20206;-67
2023/12/06 05:04:16;;;;;;;23.03;11.07;;;0.80;99.90;;;;;;4913845;28;21390;-67
2023/12/06 05:06:43;;;;;;;20.27;10.93;;;0.70;99.90;;;;;;4947005;28;20207;-67
2023/12/06 05:09:11;;;;;;;19.80;10.97;;;0.80;99.90;;;;;;4935590;28;20311;-67
2023/12/06 05:11:38;;;;;;;23.07;10.67;;;0.70;99.90;;;;;;4949070;28;20229;-67
2023/12/06 05:14:05;;;;;;;22.80;11.47;;;2.00;99.90;;;;;;4908369;28;29928;-67
2023/12/06 05:16:32;;;;;;;22.47;11.47;;;0.20;99.90;;;;;;4933201;28;21214;-67
2023/12/06 05:19:00;;;;;;;19.47;10.83;;;0.70;99.90;;;;;;4931751;28;20221;-67
2023/12/06 05:21:27;;;;;;;19.60;10.40;;;;;;;;;;4930732;28;20221;-68
2023/12/06 05:23:54;;;;;;;19.73;11.03;;;0.80;99.90;;;;;;4938540;28;20529;-68
2023/12/06 05:26:23;;;;;;;23.23;11.73;;;0.70;99.90;;;;;;4939550;28;20201;-67
2023/12/06 05:28:50;;;;;;;19.33;10.17;;;0.80;99.90;;;;;;4943016;28;20206;-67
2023/12/06 05:31:17;;;;;;;27.03;12.33;;;;;;;;;;4906858;28;20209;-67
2023/12/06 05:33:44;;;;;;;23.57;11.97;;;-0.10;99.90;;;;;;4921088;28;20785;-67
2023/12/06 05:36:13;;;;;;;21.23;12.03;;;0.70;99.90;;;;;;4927617;28;20365;-67
2023/12/06 05:38:39;;;;;;;21.77;12.00;;;2.10;99.90;;;;;;4931785;28;20838;-67
2023/12/06 05:41:06;;;;;;;23.20;11.90;;;0.80;99.90;;;;;;4938438;28;20724;-67
2023/12/06 05:43:33;;;;;;;25.73;12.93;;;0.80;99.90;;;;;;4942632;28;20225;-67
2023/12/06 05:46:00;;;;;;;20.93;11.63;;;0.70;99.90;;;;;;4908903;28;20216;-67
2023/12/06 05:48:27;;;;;;;24.30;11.30;;;-0.70;99.90;;;;;;4923943;28;20217;-68
2023/12/06 05:50:54;;;;;;;20.37;11.27;;;0.70;99.90;;;;;;4944391;28;20206;-67
2023/12/06 05:53:23;;;;;;;22.27;11.47;;;1.20;99.90;;;;;;4925107;28;20236;-67
2023/12/06 05:55:50;;;;;;;23.67;11.73;;;0.20;99.90;;;;;;4926307;28;20332;-67
2023/12/06 05:58:16;;;;;;;23.37;11.77;;;0.70;99.90;;;;;;4939396;28;20236;-67
2023/12/06 06:00:43;;;;;;;25.23;12.50;;;0.80;99.90;;;;;;4901993;28;20230;-67
2023/12/06 06:03:10;;;;;;;25.10;11.83;;;2.00;99.90;;;;;;4937246;28;20205;-67
2023/12/06 06:05:37;;;;;;;23.90;12.00;;;0.40;99.90;;;;;;4910670;28;20229;-68
2023/12/06 06:08:05;;;;;;;25.33;12.03;;;0.70;99.90;;;;;;4917018;28;20254;-67
2023/12/06 06:10:33;;;;;;;29.83;11.70;;;0.80;99.90;;;;;;4931616;28;20253;-68
2023/12/06 06:13:00;;;;;;;23.07;12.23;;;0.70;99.90;;;;;;4913666;28;20703;-67
2023/12/06 06:15:27;;;;;;;26.40;13.27;;;0.80;99.90;;;;;;4946792;28;20226;-67
2023/12/06 06:17:54;;;;;;;22.30;12.20;;;0.90;99.90;;;;;;4902586;28;20219;-67
2023/12/06 06:20:20;;;;;;;23.80;12.43;;;0.70;99.90;;;;;;4918862;28;20205;-67
2023/12/06 06:22:47;;;;;;;32.20;13.47;;;0.80;99.90;;;;;;4924672;28;20212;-67
2023/12/06 06:25:14;;;;;;;26.57;13.43;;;0.80;99.90;;;;;;4931474;28;20196;-66
2023/12/06 06:27:42;;;;;;;25.57;12.57;;;1.00;99.90;;;;;;4918431;28;21046;-67
2023/12/06 06:30:11;;;;;;;23.30;12.33;;;0.80;99.90;;;;;;4942191;28;20282;-67
2023/12/06 06:32:38;;;;;;;26.93;13.50;;;0.80;99.90;;;;;;4907076;28;20839;-68
2023/12/06 06:35:07;;;;;;;24.53;12.27;;;1.30;99.90;;;;;;4929268;28;20254;-67
2023/12/06 06:37:34;;;;;;;27.13;14.07;;;0.70;99.90;;;;;;4934086;28;20239;-67
2023/12/06 06:40:02;;;;;;;21.70;11.13;;;0.70;99.90;;;;;;4933630;28;20212;-67
2023/12/06 06:42:29;;;;;;;25.37;13.33;;;0.70;99.90;;;;;;4907963;28;20204;-67
2023/12/06 06:44:58;;;;;;;27.70;12.70;;;0.60;99.90;;;;;;4943200;28;20322;-67
2023/12/06 06:47:27;;;;;;;31.43;15.10;;;0.60;99.90;;;;;;4908738;28;20232;-67
2023/12/06 06:49:54;;;;;;;27.47;13.93;;;0.70;99.90;;;;;;4942968;28;20209;-67
2023/12/06 06:52:21;;;;;;;27.70;13.80;;;;;;;;;;4929637;28;20739;-67
2023/12/06 06:54:48;;;;;;;22.10;12.73;;;0.70;99.90;;;;;;4933944;28;20690;-67
2023/12/06 06:57:15;;;;;;;28.10;13.77;;;0.50;99.90;;;;;;4947750;28;20676;-67
2023/12/06 06:59:42;;;;;;;25.17;13.73;;;0.20;99.90;;;;;;4933751;28;20214;-67
2023/12/06 07:02:11;;;;;;;25.50;12.87;;;0.60;99.90;;;;;;4885597;28;21429;-67
2023/12/06 07:04:38;;;;;;;26.07;13.97;;;0.60;99.90;;;;;;4943979;28;20714;-66
2023/12/06 07:07:05;;;;;;;27.57;13.50;;;0.60;99.90;;;;;;4929308;28;20215;-65
2023/12/06 07:09:32;;;;;;;27.40;13.60;;;1.40;99.90;;;;;;4932741;28;20784;-66
2023/12/06 07:11:59;;;;;;;28.13;14.40;;;0.90;99.90;;;;;;4943697;28;20210;-67
2023/12/06 07:14:25;;;;;;;27.30;13.50;;;0.60;99.90;;;;;;4938640;28;20236;-67
2023/12/06 07:16:54;;;;;;;26.90;13.27;;;0.70;99.90;;;;;;4939451;28;20201;-67
2023/12/06 07:19:22;;;;;;;28.57;14.10;;;0.70;99.90;;;;;;4907978;28;20231;-67
2023/12/06 07:21:49;;;;;;;27.43;13.53;;;0.60;99.90;;;;;;4937587;28;20209;-66
2023/12/06 07:24:16;;;;;;;29.40;14.60;;;0.50;99.90;;;;;;4940666;28;20239;-67
2023/12/06 07:26:43;;;;;;;25.20;13.23;;;;;;;;;;4947307;28;20199;-67
2023/12/06 07:29:10;;;;;;;30.47;14.20;;;1.30;99.90;;;;;;4931354;28;20637;-67
2023/12/06 07:31:37;;;;;;;25.90;13.50;;;1.80;99.90;;;;;;4937962;28;20240;-67
2023/12/06 07:34:04;;;;;;;30.80;14.60;;;0.60;99.90;;;;;;4900217;28;20934;-65
2023/12/06 07:36:32;;;;;;;24.10;12.17;;;0.70;99.90;;;;;;4928369;28;20251;-67
2023/12/06 07:38:59;;;;;;;25.37;12.83;;;0.70;99.90;;;;;;4921276;28;20223;-67
2023/12/06 07:41:26;;;;;;;23.67;12.93;;;0.50;99.90;;;;;;4928880;28;20376;-66
2023/12/06 07:43:53;;;;;;;28.33;13.57;;;;;;;;;;4936747;28;20218;-66
2023/12/06 07:46:21;;;;;;;25.00;13.20;;;0.60;99.90;;;;;;4922175;28;20228;-67
2023/12/06 07:48:48;;;;;;;29.53;15.23;;;;;;;;;;4912293;28;20259;-67
2023/12/06 07:51:15;;;;;;;32.37;13.90;;;0.70;99.90;;;;;;4915948;28;20211;-67
2023/12/06 07:53:43;;;;;;;28.23;14.13;;;0.70;99.90;;;;;;4928611;28;20306;-67
2023/12/06 07:56:11;;;;;;;27.87;13.97;;;;;;;;;;4912893;28;20336;-67
2023/12/06 07:58:38;;;;;;;32.33;14.70;;;0.60;99.90;;;;;;4935726;28;20201;-67
2023/12/06 08:01:06;;;;;;;32.13;15.50;;;0.60;99.90;;;;;;4942805;28;20206;-67
2023/12/06 08:03:33;;;;;;;29.83;14.03;;;0.70;99.90;;;;;;4931917;28;20679;-67
2023/12/06 08:06:02;;;;;;;27.60;13.53;;;1.00;99.90;;;;;;4901592;28;20678;-67
2023/12/06 08:08:28;;;;;;;32.47;15.13;;;0.60;99.90;;;;;;4931348;28;20204;-67
2023/12/06 08:10:57;;;;;;;24.37;14.67;;;1.00;99.90;;;;;;4915275;28;20223;-67
2023/12/06 08:13:25;;;;;;;26.70;13.67;;;0.70;99.90;;;;;;4935546;28;20210;-67
2023/12/06 08:15:52;;;;;;;33.90;15.70;;;2.10;99.90;;;;;;4926306;28;20234;-67
2023/12/06 08:18:19;;;;;;;25.07;14.37;;;0.60;99.90;;;;;;4925353;28;20208;-67
2023/12/06 08:20:46;;;;;;;23.03;14.03;;;0.60;99.90;;;;;;4903515;28;20223;-67
2023/12/06 08:23:13;;;;;;;28.90;13.40;;;0.70;99.90;;;;;;4927384;28;21216;-67
2023/12/06 08:25:41;;;;;;;28.30;14.20;;;0.60;99.90;;;;;;4932151;28;20771;-67
2023/12/06 08:28:10;;;;;;;34.87;15.60;;;0.70;99.90;;;;;;4917040;28;20872;-67
2023/12/06 08:30:37;;;;;;;27.80;14.90;;;0.60;99.90;;;;;;4937218;28;20220;-67
2023/12/06 08:33:04;;;;;;;26.73;13.93;;;0.70;99.90;;;;;;4913358;28;20215;-67
2023/12/06 08:35:31;;;;;;;31.43;14.73;;;0.70;99.90;;;;;;4902511;28;20278;-67
2023/12/06 08:37:57;;;;;;;30.87;16.23;;;0.60;99.90;;;;;;4938547;28;20237;-67
2023/12/06 08:40:26;;;;;;;28.07;14.83;;;0.50;99.90;;;;;;4922240;28;20210;-67
2023/12/06 08:42:53;;;;;;;28.63;15.47;;;0.60;99.90;;;;;;4924047;28;20204;-67
2023/12/06 08:45:21;;;;;;;36.17;16.90;;;0.60;99.90;;;;;;4934876;28;20581;-67
2023/12/06 08:47:48;;;;;;;30.97;15.50;;;0.70;99.90;;;;;;4942248;28;20308;-66
2023/12/06 08:50:15;;;;;;;30.47;15.40;;;0.70;99.90;;;;;;4930694;28;20231;-67
2023/12/06 08:52:44;;;;;;;27.90;15.40;;;;;;;;;;4906582;28;20208;-67
2023/12/06 08:55:11;;;;;;;28.97;15.37;;;0.70;99.90;;;;;;4927361;28;20232;-67
2023/12/06 08:57:38;;;;;;;29.07;14.67;;;0.70;99.90;;;;;;4932098;28;20213;-67
2023/12/06 09:00:07;;;;;;;29.73;15.03;;;1.00;99.90;;;;;;4930480;28;20212;-67
2023/12/06 09:02:36;;;;;;;29.73;16.63;;;0.60;99.90;;;;;;4925283;28;20214;-67
2023/12/06 09:05:03;;;;;;;32.43;15.37;;;0.70;99.90;;;;;;4934025;28;21005;-67
2023/12/06 09:07:29;;;;;;;32.23;15.17;;;0.70;99.90;;;;;;4908605;28;20291;-66
2023/12/06 09:09:57;;;;;;;28.33;15.33;;;;;;;;;;4931952;28;20207;-67
2023/12/06 09:12:24;;;;;;;29.30;14.97;;;0.80;99.90;;;;;;4948051;28;20208;-67
2023/12/06 09:14:51;;;;;;;33.20;15.43;;;;;;;;;;4944023;28;20228;-67
2023/12/06 09:17:18;;;;;;;31.30;14.27;;;0.80;99.90;;;;;;4932979;28;21238;-67
2023/12/06 09:19:46;;;;;;;27.13;15.27;;;0.80;99.90;;;;;;4925210;28;20214;-67
2023/12/06 09:22:15;;;;;;;25.07;14.10;;;0.80;99.90;;;;;;4898298;28;21592;-67
2023/12/06 09:24:42;;;;;;;28.60;15.67;;;0.90;99.90;;;;;;4939576;28;20298;-67
2023/12/06 09:27:09;;;;;;;32.00;15.37;;;0.90;99.90;;;;;;4923925;28;20216;-67
2023/12/06 09:29:36;;;;;;;26.37;13.90;;;0.80;99.90;;;;;;4936867;28;20217;-68
2023/12/06 09:32:04;;;;;;;25.80;14.50;;;-0.50;99.90;;;;;;4924075;28;20307;-67
2023/12/06 09:34:31;;;;;;;30.37;13.77;;;0.90;99.90;;;;;;4929827;28;20679;-67
2023/12/06 09:36:59;;;;;;;28.50;14.40;;;1.00;99.90;;;;;;4904507;28;20245;-67
2023/12/06 09:39:26;;;;;;;27.83;14.00;;;0.80;99.90;;;;;;4932686;28;20324;-67
2023/12/06 09:41:53;;;;;;;28.30;13.77;;;1.00;99.90;;;;;;4923516;28;20227;-67
2023/12/06 09:44:20;;;;;;;26.03;13.53;;;0.90;99.90;;;;;;4935540;28;20210;-67
2023/12/06 09:46:49;;;;;;;24.67;13.77;;;0.70;99.90;;;;;;4934351;28;20317;-68
2023/12/06 09:49:16;;;;;;;24.63;14.37;;;;;;;;;;4929506;28;20218;-68
2023/12/06 09:51:43;;;;;;;27.57;13.40;;;;;;;;;;4932274;28;20213;-67
2023/12/06 09:54:12;;;;;;;30.33;15.17;;;1.00;99.90;;;;;;4900093;28;20300;-67
2023/12/06 09:56:39;;;;;;;24.97;13.67;;;0.90;99.90;;;;;;4926921;28;20232;-67
2023/12/06 09:59:06;;;;;;;27.77;13.57;;;0.90;99.90;;;;;;4933510;28;20233;-67
2023/12/06 10:01:33;;;;;;;28.47;14.10;;;0.90;99.90;;;;;;4937246;28;21961;-67
2023/12/06 10:04:00;;;;;;;24.20;13.27;;;1.30;99.90;;;;;;4923144;28;20217;-67
2023/12/06 10:06:27;;;;;;;29.10;14.10;;;1.00;99.90;;;;;;4930212;28;20217;-67
2023/12/06 10:08:55;;;;;;;30.40;15.80;;;0.60;99.90;;;;;;4919585;28;20209;-67
2023/12/06 10:11:25;;;;;;;26.40;14.57;;;1.00;99.90;;;;;;4931835;28;20554;-67
2023/12/06 10:13:53;;;;;;;30.63;15.03;;;1.30;99.90;;;;;;4927827;28;20349;-67
2023/12/06 10:16:21;;;;;;;25.03;13.93;;;1.90;99.90;;;;;;4936560;28;20226;-67
2023/12/06 10:18:52;;;;;;;28.30;14.33;;;1.00;99.90;;;;;;4928651;28;20210;-67
2023/12/06 10:21:20;;;;;;;22.57;13.50;;;1.10;99.90;;;;;;4931170;28;20204;-67
2023/12/06 10:23:54;;;;;;;27.23;14.53;;;1.20;99.90;;;;;;4940904;28;20215;-67
2023/12/06 10:26:21;;;;;;;27.47;13.87;;;1.20;99.90;;;;;;4902704;28;20204;-67
2023/12/06 10:28:49;;;;;;;21.80;12.60;;;1.00;99.90;;;;;;4927635;28;20234;-67
2023/12/06 10:31:16;;;;;;;26.07;13.43;;;1.10;99.90;;;;;;4941241;28;20283;-67
2023/12/06 10:33:44;;;;;;;29.90;14.63;;;1.20;99.90;;;;;;4929107;28;20550;-67
2023/12/06 10:36:13;;;;;;;26.17;13.53;;;1.00;99.90;;;;;;4929953;28;21048;-67
2023/12/06 10:38:42;;;;;;;26.43;13.10;;;-1.60;99.90;;;;;;4943141;28;20997;-67
2023/12/06 10:41:10;;;;;;;27.87;12.23;;;1.10;99.90;;;;;;4901198;28;20214;-67
2023/12/06 10:43:39;;;;;;;24.00;13.87;;;1.00;99.90;;;;;;4925849;28;20215;-67
2023/12/06 10:46:09;;;;;;;20.13;11.77;;;1.30;99.90;;;;;;4928717;28;20205;-67
2023/12/06 10:48:37;;;;;;;25.57;14.10;;;;;;;;;;4935818;28;20201;-67
2023/12/06 10:51:05;;;;;;;22.80;13.23;;;1.10;99.90;;;;;;4930198;28;20218;-68
2023/12/06 10:53:33;;;;;;;22.97;12.63;;;1.10;99.90;;;;;;4934820;28;20223;-67
2023/12/06 10:56:01;;;;;;;24.53;13.77;;;1.10;99.90;;;;;;4911856;28;20233;-67
2023/12/06 10:58:28;;;;;;;23.77;12.60;;;1.20;99.90;;;;;;4950354;28;20208;-67
2023/12/06 11:00:55;;;;;;;21.10;12.47;;;1.10;99.90;;;;;;4926705;28;20672;-68
2023/12/06 11:03:23;;;;;;;20.90;12.27;;;1.10;99.90;;;;;;4949463;28;20207;-67
2023/12/06 11:05:54;;;;;;;18.07;10.13;;;0.40;99.90;;;;;;4937312;28;20326;-67
2023/12/06 11:08:51;;;;;;;17.30;11.27;;;1.20;99.90;;;;;;4940682;28;20753;-68
2023/12/06 11:11:40;;;;;;;20.87;11.60;;;1.20;99.90;;;;;;4916177;28;20206;-68
2023/12/06 11:14:24;;;;;;;22.17;12.07;;;1.30;99.90;;;;;;4941301;28;20207;-67
2023/12/06 11:17:06;;;;;;;20.57;12.53;;;1.40;99.90;;;;;;4949438;28;20707;-68
2023/12/06 11:19:37;;;;;;;23.73;12.33;;;1.10;99.90;;;;;;4940397;28;20264;-68
2023/12/06 11:22:05;;;;;;;20.27;10.67;;;1.80;99.90;;;;;;4932873;28;20232;-68
2023/12/06 11:24:33;;;;;;;20.90;11.73;;;1.30;99.90;;;;;;4949324;28;20681;-67
2023/12/06 11:27:00;;;;;;;22.43;12.10;;;1.90;99.90;;;;;;4907119;28;20222;-67
2023/12/06 11:29:29;;;;;;;22.57;13.13;;;1.30;99.90;;;;;;4948019;28;20229;-67
2023/12/06 11:31:58;;;;;;;22.17;12.33;;;1.30;99.90;;;;;;4924593;28;20930;-68
2023/12/06 11:34:36;;;;;;;20.63;11.80;;;1.20;99.90;;;;;;4948799;28;20585;-68
2023/12/06 11:37:06;;;;;;;21.50;11.90;;;1.30;99.90;;;;;;4928289;28;20249;-68
2023/12/06 11:39:33;;;;;;;22.07;11.67;;;1.30;99.90;;;;;;4944803;28;20254;-68
2023/12/06 11:42:00;;;;;;;19.20;11.13;;;1.20;99.90;;;;;;4914372;28;20729;-68
2023/12/06 11:44:27;;;;;;;20.03;11.53;;;1.30;99.90;;;;;;4948340;28;20582;-68
2023/12/06 11:46:56;;;;;;;22.17;11.73;;;1.20;99.90;;;;;;4937621;28;20278;-68
2023/12/06 11:49:26;;;;;;;19.60;12.43;;;1.20;99.90;;;;;;4946598;28;20370;-68
2023/12/06 11:51:55;;;;;;;23.27;12.43;;;1.30;99.90;;;;;;4931103;28;20656;-68
2023/12/06 11:54:23;;;;;;;24.07;12.07;;;1.20;99.90;;;;;;4927898;28;20206;-68
2023/12/06 11:56:50;;;;;;;22.17;11.67;;;1.60;99.90;;;;;;4902461;28;20641;-68
2023/12/06 11:59:17;;;;;;;20.23;11.80;;;1.90;99.90;;;;;;4943941;28;20660;-68
2023/12/06 12:01:46;;;;;;;24.33;12.60;;;1.30;99.90;;;;;;4935376;28;20781;-69
2023/12/06 12:04:13;;;;;;;21.20;11.80;;;1.20;99.90;;;;;;4945216;28;20677;-69
2023/12/06 12:06:40;;;;;;;22.30;11.23;;;1.20;99.90;;;;;;4932449;28;20203;-69
2023/12/06 12:09:11;;;;;;;23.60;12.63;;;1.10;99.90;;;;;;4938604;28;20237;-69
2023/12/06 12:11:38;;;;;;;22.70;11.87;;;1.10;99.90;;;;;;4946348;28;20199;-68
2023/12/06 12:14:06;;;;;;;19.27;11.70;;;1.20;99.90;;;;;;4910549;28;20213;-69
2023/12/06 12:16:33;;;;;;;20.87;11.23;;;1.30;99.90;;;;;;4940502;28;20246;-68
2023/12/06 12:19:03;;;;;;;21.50;10.97;;;1.20;99.90;;;;;;4935398;28;20831;-69
2023/12/06 12:21:30;;;;;;;15.87;10.37;;;1.20;99.90;;;;;;4937592;28;20204;-69
2023/12/06 12:23:57;;;;;;;20.63;10.97;;;1.30;99.90;;;;;;4916679;28;20513;-69
2023/12/06 12:26:26;;;;;;;17.70;10.87;;;1.20;99.90;;;;;;4938834;28;20219;-69
2023/12/06 12:28:53;;;;;;;20.40;11.20;;;1.30;99.90;;;;;;4906446;28;22672;-70
2023/12/06 12:31:26;;;;;;;20.73;12.07;;;1.10;99.90;;;;;;4924551;28;20213;-70
2023/12/06 12:33:54;;;;;;;21.53;11.93;;;1.20;99.90;;;;;;4929412;28;20230;-69
2023/12/06 12:36:21;;;;;;;19.33;11.70;;;1.30;99.90;;;;;;4920025;28;21058;-70
2023/12/06 12:38:48;;;;;;;17.73;11.33;;;1.20;99.90;;;;;;4916934;28;20213;-70
2023/12/06 12:41:16;;;;;;;19.70;11.33;;;0.90;99.90;;;;;;4937760;28;20262;-69
2023/12/06 12:43:44;;;;;;;19.70;11.07;;;1.40;99.90;;;;;;4944443;28;20981;-70
2023/12/06 12:46:11;;;;;;;19.33;11.20;;;-0.10;99.90;;;;;;4902717;28;20312;-69